sensor_id;sensor_type;location;lat;lon;timestamp;P1;durP1;ratioP1;P2;durP2;ratioP2
24102;SDS011;12278;53.058;9.028;2023-08-30T19:22:02;14.25;;;12.27;;
24102;SDS011;12278;53.058;9.028;2023-08-30T19:26:03;15.40;;;13.35;;
24102;SDS011;12278;53.058;9.028;2023-08-30T19:30:04;13.77;;;12.40;;
24102;SDS011;12278;53.058;9.028;2023-08-30T19:34:05;14.32;;;12.70;;
24102;SDS011;12278;53.058;9.028;2023-08-30T19:38:06;15.10;;;12.40;;
24102;SDS011;12278;53.058;9.028;2023-08-30T19:42:06;12.10;;;10.25;;
24102;SDS011;12278;53.058;9.028;2023-08-30T19:46:07;10.32;;;9.25;;
24102;SDS011;12278;53.058;9.028;2023-08-30T19:50:08;5.70;;;5.10;;
24102;SDS011;12278;53.058;9.028;2023-08-30T19:54:09;5.35;;;3.90;;
24102;SDS011;12278;53.058;9.028;2023-08-30T19:58:10;4.45;;;3.20;;
24102;SDS011;12278;53.058;9.028;2023-08-30T20:02:13;3.10;;;2.80;;
24102;SDS011;12278;53.058;9.028;2023-08-30T20:06:14;2.53;;;2.33;;
24102;SDS011;12278;53.058;9.028;2023-08-30T20:10:15;2.00;;;1.80;;
24102;SDS011;12278;53.058;9.028;2023-08-30T20:14:16;1.75;;;1.65;;
24102;SDS011;12278;53.058;9.028;2023-08-30T20:18:19;1.95;;;1.55;;
24102;SDS011;12278;53.058;9.028;2023-08-30T20:22:19;1.42;;;1.33;;
24102;SDS011;12278;53.058;9.028;2023-08-30T20:26:20;2.40;;;1.27;;
24102;SDS011;12278;53.058;9.028;2023-08-30T20:30:21;1.23;;;1.08;;
24102;SDS011;12278;53.058;9.028;2023-08-30T20:34:22;1.65;;;1.10;;
24102;SDS011;12278;53.058;9.028;2023-08-30T20:38:23;1.90;;;0.98;;
24102;SDS011;12278;53.058;9.028;2023-08-30T20:42:24;1.02;;;0.90;;
24102;SDS011;12278;53.058;9.028;2023-08-30T20:46:25;2.95;;;0.95;;
24102;SDS011;12278;53.058;9.028;2023-08-30T20:50:26;1.23;;;1.00;;
24102;SDS011;12278;53.058;9.028;2023-08-30T20:54:26;1.25;;;1.15;;
24102;SDS011;12278;53.058;9.028;2023-08-30T20:58:32;1.05;;;0.95;;
24102;SDS011;12278;53.058;9.028;2023-08-30T21:02:33;1.27;;;1.10;;
24102;SDS011;12278;53.058;9.028;2023-08-30T21:06:35;1.60;;;1.38;;
24102;SDS011;12278;53.058;9.028;2023-08-30T21:10:36;2.05;;;1.50;;
24102;SDS011;12278;53.058;9.028;2023-08-30T21:14:37;2.25;;;1.75;;
24102;SDS011;12278;53.058;9.028;2023-08-30T21:18:38;1.30;;;1.20;;
24102;SDS011;12278;53.058;9.028;2023-08-30T21:22:39;2.77;;;1.60;;
24102;SDS011;12278;53.058;9.028;2023-08-30T21:26:40;2.42;;;1.38;;
24102;SDS011;12278;53.058;9.028;2023-08-30T21:30:41;1.65;;;1.55;;
24102;SDS011;12278;53.058;9.028;2023-08-30T21:34:43;3.58;;;1.83;;
24102;SDS011;12278;53.058;9.028;2023-08-30T21:38:44;2.40;;;1.95;;
24102;SDS011;12278;53.058;9.028;2023-08-30T21:42:44;2.03;;;1.83;;
24102;SDS011;12278;53.058;9.028;2023-08-30T21:46:45;2.40;;;2.20;;
24102;SDS011;12278;53.058;9.028;2023-08-30T21:50:46;2.40;;;2.20;;
24102;SDS011;12278;53.058;9.028;2023-08-30T21:54:46;2.50;;;2.30;;
24102;SDS011;12278;53.058;9.028;2023-08-30T21:58:47;3.05;;;2.55;;
24102;SDS011;12278;53.058;9.028;2023-08-30T22:02:51;2.35;;;2.15;;
24102;SDS011;12278;53.058;9.028;2023-08-30T22:06:51;3.47;;;3.17;;
24102;SDS011;12278;53.058;9.028;2023-08-30T22:10:52;3.28;;;2.83;;
24102;SDS011;12278;53.058;9.028;2023-08-30T22:14:53;3.58;;;3.15;;
24102;SDS011;12278;53.058;9.028;2023-08-30T22:18:54;3.70;;;3.40;;
24102;SDS011;12278;53.058;9.028;2023-08-30T22:22:55;3.42;;;3.13;;
24102;SDS011;12278;53.058;9.028;2023-08-30T22:26:55;3.78;;;3.47;;
24102;SDS011;12278;53.058;9.028;2023-08-30T22:30:56;4.13;;;3.58;;
24102;SDS011;12278;53.058;9.028;2023-08-30T22:34:57;4.47;;;3.83;;
24102;SDS011;12278;53.058;9.028;2023-08-30T22:39:03;4.07;;;3.45;;
24102;SDS011;12278;53.058;9.028;2023-08-30T22:43:05;3.85;;;3.50;;
24102;SDS011;12278;53.058;9.028;2023-08-30T22:47:06;3.58;;;3.28;;
24102;SDS011;12278;53.058;9.028;2023-08-30T22:51:06;4.35;;;3.95;;
24102;SDS011;12278;53.058;9.028;2023-08-30T22:55:08;4.57;;;3.35;;
24102;SDS011;12278;53.058;9.028;2023-08-30T22:59:08;4.97;;;4.00;;
24102;SDS011;12278;53.058;9.028;2023-08-30T23:03:09;3.85;;;3.47;;
24102;SDS011;12278;53.058;9.028;2023-08-30T23:07:10;6.00;;;3.83;;
24102;SDS011;12278;53.058;9.028;2023-08-30T23:11:11;4.18;;;3.78;;
24102;SDS011;12278;53.058;9.028;2023-08-30T23:15:11;4.28;;;3.88;;
24102;SDS011;12278;53.058;9.028;2023-08-30T23:19:12;3.85;;;3.45;;
24102;SDS011;12278;53.058;9.028;2023-08-30T23:23:13;4.57;;;3.80;;
24102;SDS011;12278;53.058;9.028;2023-08-30T23:27:13;4.30;;;3.90;;
24102;SDS011;12278;53.058;9.028;2023-08-30T23:31:14;4.78;;;4.07;;
24102;SDS011;12278;53.058;9.028;2023-08-30T23:35:14;4.80;;;4.40;;
24102;SDS011;12278;53.058;9.028;2023-08-30T23:39:15;6.78;;;4.65;;
24102;SDS011;12278;53.058;9.028;2023-08-30T23:43:16;4.75;;;4.30;;
24102;SDS011;12278;53.058;9.028;2023-08-30T23:47:16;6.70;;;5.03;;
24102;SDS011;12278;53.058;9.028;2023-08-30T23:51:17;6.72;;;3.80;;
24102;SDS011;12278;53.058;9.028;2023-08-30T23:55:18;4.28;;;3.83;;
24102;SDS011;12278;53.058;9.028;2023-08-30T23:59:18;5.15;;;4.07;;
